Time;durP1;ratioP1;P1;durP2;ratioP2;P2;SDS_P1;SDS_P2;PMS_P1;PMS_P2;Temp;Humidity;BMP_temperature;BMP_pressure;BME280_temperature;BME280_humidity;BME280_pressure;Samples;Min_cycle;Max_cycle;Signal;HPM_P1;HPM_P2
2023/07/10 03:27:02;;;;;;;4.60;2.80;;;;;;;17.25;100.00;99485.67;101599;1295;601516;-55
2023/07/10 03:29:30;;;;;;;3.10;2.80;;;;;;;17.57;100.00;99484.23;103594;1270;62437;-55
2023/07/10 03:31:58;;;;;;;2.90;2.70;;;;;;;17.63;100.00;99483.39;103525;1267;59990;-55
2023/07/10 03:34:25;;;;;;;6.80;2.60;;;;;;;17.69;100.00;99483.31;103589;1284;72287;-55
2023/07/10 03:36:53;;;;;;;2.70;2.50;;;;;;;17.75;100.00;99488.36;103476;1271;70094;-55
2023/07/10 03:39:21;;;;;;;3.00;2.70;;;;;;;17.78;100.00;99486.87;103537;1280;72980;-55
2023/07/10 03:41:48;;;;;;;;;;;;;;;17.84;100.00;99492.32;103674;1270;320770;-55
2023/07/10 03:44:16;;;;;;;3.00;2.60;;;;;;;17.90;100.00;99494.19;103988;1264;59597;-54
2023/07/10 03:46:44;;;;;;;3.30;2.90;;;;;;;17.95;100.00;99492.05;103890;1264;71949;-54
2023/07/10 03:49:11;;;;;;;3.10;2.80;;;;;;;17.99;100.00;99486.57;103925;1270;69179;-55
2023/07/10 03:51:39;;;;;;;4.00;2.90;;;;;;;18.03;100.00;99484.17;103930;1269;72574;-55
2023/07/10 03:54:10;;;;;;;3.10;2.80;;;;;;;18.09;100.00;99485.10;105746;1263;61422;-55
2023/07/10 03:56:38;;;;;;;4.30;2.90;;;;;;;18.15;100.00;99483.05;103954;1264;60696;-56
2023/07/10 03:59:06;;;;;;;3.40;3.10;;;;;;;18.23;100.00;99480.67;106204;1264;73036;-54
2023/07/10 04:01:34;;;;;;;3.30;2.70;;;;;;;18.29;100.00;99481.12;105318;1264;69137;-54
2023/07/10 04:04:01;;;;;;;;;;;;;;;18.36;100.00;99476.67;104081;1273;72293;-54
2023/07/10 04:06:29;;;;;;;3.00;2.80;;;;;;;18.40;100.00;99479.73;104127;1267;61572;-56
2023/07/10 04:08:58;;;;;;;5.40;3.10;;;;;;;18.44;100.00;99479.41;104143;1264;59708;-55
2023/07/10 04:11:26;;;;;;;5.90;2.90;;;;;;;18.50;100.00;99478.60;104168;1269;72953;-55
2023/07/10 04:13:53;;;;;;;3.40;2.80;;;;;;;18.55;100.00;99482.30;104107;1274;69603;-56
2023/07/10 04:16:22;;;;;;;;;;;;;;;18.62;100.00;99475.82;103938;1264;72318;-56
2023/07/10 04:18:51;;;;;;;5.10;3.10;;;;;;;18.67;100.00;99469.94;103933;1266;61584;-56
2023/07/10 04:21:27;;;;;;;4.10;3.40;;;;;;;18.74;100.00;99474.55;106575;1262;59786;-57
2023/07/10 04:23:55;;;;;;;4.10;2.90;;;;;;;18.84;100.00;99471.17;106251;1267;73240;-54
2023/07/10 04:26:25;;;;;;;4.50;3.00;;;;;;;18.92;100.00;99468.21;104101;1264;69056;-56
2023/07/10 04:28:54;;;;;;;3.50;2.80;;;;;;;18.99;100.00;99467.24;103951;1281;73326;-55
2023/07/10 04:31:22;;;;;;;3.30;2.90;;;;;;;19.05;100.00;99466.39;104433;1264;61985;-55
2023/07/10 04:33:52;;;;;;;4.10;2.70;;;;;;;19.11;100.00;99466.81;103989;1269;59807;-55
2023/07/10 04:36:19;;;;;;;3.30;3.00;;;;;;;19.17;100.00;99460.13;103890;1276;73720;-56
2023/07/10 04:38:48;;;;;;;6.90;3.20;;;;;;;19.24;100.00;99463.70;103817;1267;69103;-55
2023/07/10 04:41:19;;;;;;;4.00;3.10;;;;;;;19.31;100.00;99461.14;104007;1267;72361;-55
2023/07/10 04:43:47;;;;;;;4.20;2.60;;;;;;;19.39;100.00;99461.54;103861;1273;61419;-55
2023/07/10 04:46:15;;;;;;;3.20;2.90;;;;;;;19.45;100.00;99464.20;103957;1265;60126;-55
2023/07/10 04:48:43;;;;;;;3.10;2.90;;;;;;;19.53;100.00;99462.91;103922;1269;72772;-55
2023/07/10 04:51:11;;;;;;;;;;;;;;;19.61;100.00;99461.17;103837;1270;69268;-55
2023/07/10 04:53:39;;;;;;;2.60;2.40;;;;;;;19.70;100.00;99461.29;103914;1270;72372;-55
2023/07/10 04:56:09;;;;;;;5.00;3.30;;;;;;;19.76;100.00;99459.90;103979;1277;62330;-55
2023/07/10 04:58:49;;;;;;;3.40;3.10;;;;;;;19.82;100.00;99460.12;103796;1263;59448;-55
2023/07/10 05:01:19;;;;;;;4.70;2.80;;;;;;;19.91;100.00;99457.05;106332;1261;72757;-57
2023/07/10 05:03:47;;;;;;;3.30;2.80;;;;;;;19.95;100.00;99457.93;105053;1258;70895;-55
2023/07/10 05:06:16;;;;;;;3.40;3.10;;;;;;;20.03;100.00;99457.08;104504;1267;71477;-56
2023/07/10 05:08:44;;;;;;;4.10;3.00;;;;;;;20.13;100.00;99455.40;106435;1254;60673;-56
2023/07/10 05:11:11;;;;;;;2.80;2.40;;;;;;;20.17;100.00;99455.02;104645;1260;59697;-56
2023/07/10 05:13:39;;;;;;;4.50;2.80;;;;;;;20.23;100.00;99450.91;104468;1260;71880;-55
2023/07/10 05:16:07;;;;;;;5.80;2.80;;;;;;;20.31;100.00;99451.48;104420;1254;70011;-57
2023/07/10 05:18:36;;;;;;;5.70;2.80;;;;;;;20.42;100.00;99453.77;104302;1260;73344;-56
2023/07/10 05:21:04;;;;;;;3.10;2.70;;;;;;;20.52;100.00;99454.66;104369;1257;60633;-56
2023/07/10 05:23:32;;;;;;;;;;;;;;;20.59;100.00;99452.64;104377;1257;59669;-56
2023/07/10 05:26:03;;;;;;;;;;;;;;;20.68;100.00;99449.79;104379;1256;72851;-56
2023/07/10 05:28:34;;;;;;;3.20;2.90;;;;;;;20.74;100.00;99449.23;104301;1260;68132;-56
2023/07/10 05:31:03;;;;;;;3.10;2.80;;;;;;;20.78;100.00;99448.35;104335;1267;72372;-56
2023/07/10 05:33:31;;;;;;;6.40;2.90;;;;;;;20.86;100.00;99443.55;104404;1255;61822;-56
2023/07/10 05:36:00;;;;;;;4.20;2.50;;;;;;;20.93;100.00;99442.73;104393;1254;60008;-56
2023/07/10 05:38:30;;;;;;;5.70;2.90;;;;;;;20.98;100.00;99442.66;104223;1258;73262;-56
2023/07/10 05:40:58;;;;;;;7.60;3.10;;;;;;;21.06;100.00;99442.34;104277;1272;69192;-57
2023/07/10 05:43:28;;;;;;;3.50;2.70;;;;;;;21.15;100.00;99441.16;104373;1260;72755;-57
2023/07/10 05:45:56;;;;;;;3.10;2.80;;;;;;;21.26;100.00;99437.10;104356;1270;62586;-57
2023/07/10 05:48:24;;;;;;;;;;;;;;;21.35;100.00;99436.48;104377;1260;59676;-57
2023/07/10 05:50:51;;;;;;;;;;;;;;;21.41;100.00;99434.49;104391;1254;72882;-56
2023/07/10 05:53:19;;;;;;;2.90;2.70;;;;;;;21.48;100.00;99431.23;104319;1261;69069;-56
2023/07/10 05:55:48;;;;;;;2.80;2.50;;;;;;;21.54;100.00;99432.50;104331;1254;72523;-56
2023/07/10 05:58:17;;;;;;;5.10;2.70;;;;;;;21.61;100.00;99432.02;104372;1257;61830;-56
2023/07/10 06:00:47;;;;;;;3.70;2.50;;;;;;;21.69;100.00;99438.04;104337;1264;60203;-56
2023/07/10 06:03:14;;;;;;;3.40;2.50;;;;;;;21.79;100.00;99439.79;105053;1254;73750;-57
2023/07/10 06:05:42;;;;;;;4.20;2.60;;;;;;;21.88;100.00;99441.80;107993;1254;68686;-58
2023/07/10 06:08:10;;;;;;;4.10;2.80;;;;;;;21.98;100.00;99439.10;107917;1257;72491;-57
2023/07/10 06:10:38;;;;;;;3.30;3.00;;;;;;;22.08;100.00;99437.83;104525;1269;61396;-57
2023/07/10 06:13:05;;;;;;;3.10;2.70;;;;;;;22.18;100.00;99435.92;104502;1253;60037;-56
2023/07/10 06:15:33;;;;;;;3.10;2.80;;;;;;;22.25;100.00;99432.95;104256;1260;72913;-57
2023/07/10 06:18:01;;;;;;;6.80;2.80;;;;;;;22.28;100.00;99431.15;104360;1258;70018;-56
2023/07/10 06:20:29;;;;;;;4.30;2.40;;;;;;;22.30;100.00;99427.69;104326;1258;71443;-56
2023/07/10 06:22:57;;;;;;;4.80;2.70;;;;;;;22.41;100.00;99427.23;104515;1260;59772;-57
2023/07/10 06:25:24;;;;;;;;;;;;;;;22.50;100.00;99428.66;108008;1256;60520;-57
2023/07/10 06:27:52;;;;;;;2.70;2.40;;;;;;;22.58;100.00;99426.66;107993;1256;72986;-57
2023/07/10 06:30:20;;;;;;;3.90;2.40;;;;;;;22.64;100.00;99426.28;107897;1255;69455;-58
2023/07/10 06:32:48;;;;;;;2.40;2.20;;;;;;;22.72;100.00;99422.10;107989;1257;73353;-57
2023/07/10 06:35:15;;;;;;;;;;;;;;;22.83;100.00;99422.41;105403;1256;61103;-56
2023/07/10 06:37:43;;;;;;;3.20;2.50;;;;;;;22.90;100.00;99421.80;104378;1260;59829;-57
2023/07/10 06:40:15;;;;;;;2.90;2.70;;;;;;;22.93;100.00;99418.99;104188;1257;73225;-58
2023/07/10 06:42:43;;;;;;;3.00;2.30;;;;;;;22.99;100.00;99419.80;104157;1260;68214;-57
2023/07/10 06:45:14;;;;;;;3.90;2.80;;;;;;;23.05;100.00;99419.80;104240;1272;72610;-56
2023/07/10 06:47:43;;;;;;;3.50;2.50;;;;;;;23.07;100.00;99424.09;104343;1267;59983;-56
2023/07/10 06:50:13;;;;;;;2.90;2.70;;;;;;;23.07;100.00;99419.64;104244;1257;59793;-57
2023/07/10 06:52:41;;;;;;;3.00;2.80;;;;;;;23.11;100.00;99419.95;104181;1261;74094;-57
2023/07/10 06:55:12;;;;;;;3.00;2.80;;;;;;;23.19;100.00;99415.75;104558;1256;69290;-56
2023/07/10 06:57:40;;;;;;;3.30;2.90;;;;;;;23.28;100.00;99417.13;104355;1253;72019;-56
2023/07/10 07:00:10;;;;;;;2.80;2.60;;;;;;;23.36;100.00;99414.64;104340;1257;59776;-56
2023/07/10 07:02:38;;;;;;;3.60;2.80;;;;;;;23.47;100.00;99406.02;107989;1253;60665;-57
2023/07/10 07:05:07;;;;;;;2.90;2.70;;;;;;;23.48;100.00;99408.61;104696;1268;72841;-57
2023/07/10 07:07:36;;;;;;;2.90;2.70;;;;;;;23.48;100.00;99406.58;104539;1257;69327;-57
2023/07/10 07:10:05;;;;;;;4.20;2.70;;;;;;;23.48;100.00;99401.94;104499;1259;72755;-57
2023/07/10 07:12:34;;;;;;;3.20;2.90;;;;;;;23.54;100.00;99406.55;104638;1252;59854;-57
2023/07/10 07:15:02;;;;;;;5.50;3.00;;;;;;;23.55;100.00;99403.11;104456;1253;59909;-57
2023/07/10 07:17:30;;;;;;;3.00;2.70;;;;;;;23.58;100.00;99404.04;104391;1257;72887;-58
2023/07/10 07:19:58;;;;;;;;;;;;;;;23.66;100.00;99400.14;104316;1276;68715;-57
2023/07/10 07:22:26;;;;;;;;;;;;;;;23.80;100.00;99397.54;104430;1257;73450;-57
2023/07/10 07:24:53;;;;;;;3.30;2.60;;;;;;;23.85;100.00;99393.60;104379;1254;59892;-57
2023/07/10 07:27:21;;;;;;;3.00;2.70;;;;;;;23.90;100.00;99388.64;104421;1257;60115;-58
2023/07/10 07:29:51;;;;;;;4.00;2.70;;;;;;;23.99;100.00;99388.20;104385;1257;72929;-57
2023/07/10 07:32:19;;;;;;;4.80;2.80;;;;;;;24.04;100.00;99392.68;104399;1264;69083;-57
2023/07/10 07:34:47;;;;;;;2.60;2.30;;;;;;;24.02;100.00;99388.58;104433;1267;73331;-57
2023/07/10 07:37:16;;;;;;;;;;;;;;;24.07;100.00;99390.42;104333;1254;60274;-57
2023/07/10 07:39:44;;;;;;;2.50;2.30;;;;;;;24.14;100.00;99394.55;104395;1257;60530;-57
2023/07/10 07:42:11;;;;;;;4.40;2.80;;;;;;;24.23;100.00;99390.55;104351;1254;73884;-57
2023/07/10 07:44:41;;;;;;;;;;;;;;;24.32;100.00;99391.77;104378;1256;69622;-56
2023/07/10 07:47:08;;;;;;;7.90;3.00;;;;;;;24.38;99.98;99387.60;104271;1254;72345;-57
2023/07/10 07:49:36;;;;;;;3.30;2.60;;;;;;;24.39;100.00;99386.16;104401;1267;60327;-59
2023/07/10 07:52:05;;;;;;;3.20;2.50;;;;;;;24.43;100.00;99385.80;104421;1256;60619;-57
2023/07/10 07:54:32;;;;;;;4.50;2.50;;;;;;;24.48;100.00;99380.42;104444;1251;72879;-61
2023/07/10 07:57:00;;;;;;;4.30;2.70;;;;;;;24.49;100.00;99387.18;104318;1270;69635;-57
2023/07/10 07:59:29;;;;;;;;;;;;;;;24.54;100.00;99379.50;108399;1253;72906;-58
2023/07/10 08:01:56;;;;;;;2.40;2.20;;;;;;;24.61;98.59;99378.19;108441;1251;59692;-58
2023/07/10 08:04:25;;;;;;;2.60;2.40;;;;;;;24.64;97.70;99375.20;108329;1252;60047;-59
2023/07/10 08:06:53;;;;;;;3.30;2.00;;;;;;;24.69;98.60;99380.95;108422;1251;73649;-59
2023/07/10 08:09:20;;;;;;;3.50;1.80;;;;;;;24.70;98.57;99370.86;108481;1251;70365;-60
2023/07/10 08:11:48;;;;;;;2.90;2.00;;;;;;;24.79;99.12;99368.46;108380;1253;72358;-58
2023/07/10 08:14:16;;;;;;;;;;;;;;;24.95;96.90;99369.73;108417;1251;59734;-58
2023/07/10 08:16:43;;;;;;;2.40;1.80;;;;;;;25.08;97.89;99366.98;108667;1251;59530;-58
2023/07/10 08:19:11;;;;;;;2.00;1.80;;;;;;;25.20;96.38;99366.73;108597;1251;73692;-58
2023/07/10 08:21:39;;;;;;;;;;;;;;;25.24;88.16;99360.37;108607;1251;70019;-58
2023/07/10 08:24:07;;;;;;;2.40;1.60;;;;;;;25.25;87.14;99357.20;108544;1251;72508;-58
2023/07/10 08:26:34;;;;;;;2.50;1.60;;;;;;;25.28;86.08;99354.96;108450;1253;58905;-58
2023/07/10 08:31:56;;;;;;;1.80;1.60;;;;;;;25.49;88.28;99358.94;101255;1294;601010;-58
2023/07/10 15:44:10;;;;;;;2.60;1.20;;;;;;;28.27;41.27;99266.86;100837;1293;616508;-57
2023/07/10 15:46:40;;;;;;;2.60;1.00;;;;;;;28.48;39.88;99263.39;103564;1267;60008;-56
2023/07/10 15:49:24;;;;;;;4.60;1.00;;;;;;;28.39;39.71;99266.86;103574;1272;60984;-56
2023/07/10 15:51:53;;;;;;;2.80;1.30;;;;;;;28.30;38.58;99263.69;103588;1267;72162;-56
2023/07/10 15:54:20;;;;;;;2.20;1.60;;;;;;;28.19;38.23;99268.50;103631;1282;70129;-56
2023/07/10 15:56:48;;;;;;;4.80;1.60;;;;;;;28.42;38.06;99266.09;103233;1264;181093;-56
2023/07/10 15:59:16;;;;;;;4.50;1.30;;;;;;;29.24;36.59;99261.45;103981;1280;59938;-56
2023/07/10 16:01:46;;;;;;;2.20;1.30;;;;;;;30.29;34.52;99255.98;103855;1264;59893;-56
2023/07/10 16:04:23;;;;;;;2.20;1.60;;;;;;;31.34;32.86;99253.75;103912;1267;72700;-56
2023/07/10 16:06:51;;;;;;;;;;;;;;;32.12;31.71;99244.81;107421;1261;70337;-57
2023/07/10 16:09:18;;;;;;;2.40;1.20;;;;;;;32.13;31.27;99247.73;107031;1259;72733;-56
2023/07/10 16:11:46;;;;;;;1.70;1.30;;;;;;;31.46;31.75;99239.27;104199;1273;61295;-56
2023/07/10 16:14:21;;;;;;;1.50;1.20;;;;;;;30.64;32.72;99241.70;103971;1260;59802;-56
2023/07/10 16:16:48;;;;;;;2.40;1.20;;;;;;;29.90;33.91;99244.14;104249;1280;72628;-56
2023/07/10 16:19:15;;;;;;;1.60;1.20;;;;;;;29.46;35.45;99249.40;104173;1257;70379;-56
2023/07/10 16:21:43;;;;;;;;;;;;;;;29.34;35.73;99249.52;104056;1257;73365;-56
2023/07/10 16:24:15;;;;;;;1.00;1.00;;;;;;;29.23;36.47;99248.02;104196;1272;60149;-56
2023/07/10 16:26:42;;;;;;;1.60;1.10;;;;;;;28.78;36.40;99252.95;104161;1258;60441;-56
2023/07/10 16:29:10;;;;;;;1.40;1.00;;;;;;;28.13;36.66;99255.91;104171;1263;73866;-56
2023/07/10 16:31:37;;;;;;;0.90;0.90;;;;;;;27.65;37.70;99259.27;104099;1258;69848;-56
2023/07/10 16:34:04;;;;;;;1.10;1.00;;;;;;;27.19;38.56;99258.27;104245;1263;72431;-56
2023/07/10 16:36:31;;;;;;;2.00;0.90;;;;;;;26.85;39.86;99257.36;104016;1263;60231;-55
2023/07/10 16:38:58;;;;;;;3.80;1.20;;;;;;;26.46;40.31;99258.23;104223;1260;59640;-56
2023/07/10 16:41:25;;;;;;;3.50;1.40;;;;;;;26.15;41.82;99259.30;104152;1261;73266;-55
2023/07/10 16:43:51;;;;;;;1.20;1.10;;;;;;;25.91;41.91;99260.59;104240;1272;69711;-55
2023/07/10 16:46:19;;;;;;;3.80;1.30;;;;;;;25.63;42.97;99260.70;104176;1262;73102;-55
2023/07/10 16:48:50;;;;;;;;;;;;;;;25.41;43.70;99265.55;104276;1258;59940;-55
2023/07/10 16:51:22;;;;;;;1.40;1.20;;;;;;;25.18;45.21;99266.54;104134;1257;59813;-56
2023/07/10 16:53:49;;;;;;;1.20;1.10;;;;;;;25.00;46.23;99265.80;104066;1270;73876;-55
2023/07/10 16:56:18;;;;;;;1.80;1.30;;;;;;;24.86;47.91;99268.61;104029;1257;70016;-55
2023/07/10 16:58:45;;;;;;;3.00;1.20;;;;;;;24.68;49.99;99269.58;104242;1261;72369;-56
2023/07/10 17:01:25;;;;;;;4.60;1.40;;;;;;;24.56;50.89;99272.35;104055;1257;59787;-55
2023/07/10 17:03:52;;;;;;;2.90;1.40;;;;;;;24.43;52.45;99272.02;104013;1260;59741;-57
2023/07/10 17:06:23;;;;;;;2.80;1.40;;;;;;;24.29;53.16;99271.95;104120;1259;72961;-56
2023/07/10 17:08:50;;;;;;;3.70;1.30;;;;;;;24.14;53.98;99273.67;107763;1256;69172;-56
2023/07/10 17:11:25;;;;;;;4.70;1.50;;;;;;;24.00;54.81;99267.84;105614;1258;73095;-56
2023/07/10 17:13:51;;;;;;;4.00;1.50;;;;;;;23.91;55.91;99268.23;104422;1260;60246;-56
2023/07/10 17:16:19;;;;;;;1.50;1.40;;;;;;;23.84;57.21;99268.08;104261;1261;60393;-56
2023/07/10 17:18:46;;;;;;;1.30;1.20;;;;;;;23.72;56.94;99266.59;104419;1260;73393;-56
2023/07/10 17:21:13;;;;;;;1.50;1.10;;;;;;;23.61;56.27;99269.91;104168;1273;69879;-55
2023/07/10 17:23:41;;;;;;;5.40;1.50;;;;;;;23.48;56.44;99274.03;104033;1261;72559;-56
2023/07/10 17:26:18;;;;;;;1.70;1.20;;;;;;;23.38;57.32;99272.42;104266;1266;59949;-56
2023/07/10 17:28:45;;;;;;;2.50;1.10;;;;;;;23.28;57.32;99274.82;104098;1265;59886;-55
2023/07/10 17:31:30;;;;;;;6.00;2.00;;;;;;;23.19;59.12;99272.73;104040;1260;73526;-58
2023/07/10 17:33:58;;;;;;;3.70;1.60;;;;;;;23.10;58.06;99275.96;104098;1257;68925;-57
2023/07/10 17:36:26;;;;;;;5.50;1.50;;;;;;;22.99;58.80;99279.40;104302;1261;72876;-55
2023/07/10 17:38:53;;;;;;;1.30;1.20;;;;;;;22.88;59.07;99287.91;103846;1260;59771;-57
2023/07/10 17:41:28;;;;;;;3.50;1.20;;;;;;;22.78;60.23;99286.46;104212;1257;59777;-56
2023/07/10 17:43:57;;;;;;;1.40;1.20;;;;;;;22.61;61.74;99285.09;104030;1258;71954;-57
2023/07/10 17:46:24;;;;;;;1.70;1.40;;;;;;;22.50;63.09;99284.38;103939;1266;70350;-57
2023/07/10 17:48:51;;;;;;;2.30;1.70;;;;;;;22.42;66.27;99288.16;104072;1257;72660;-56
2023/07/10 17:51:33;;;;;;;4.10;1.40;;;;;;;22.37;69.43;99292.48;104184;1258;59874;-57
2023/07/10 17:54:05;;;;;;;3.50;1.50;;;;;;;22.26;70.80;99292.45;104066;1262;60033;-55
2023/07/10 17:56:32;;;;;;;1.60;1.30;;;;;;;22.15;71.49;99296.09;104215;1264;72775;-55
2023/07/10 17:58:59;;;;;;;4.20;1.60;;;;;;;22.06;75.53;99297.35;104158;1261;70094;-55
2023/07/10 18:01:26;;;;;;;2.40;1.40;;;;;;;21.99;74.10;99299.69;104246;1257;72477;-56
2023/07/10 18:03:55;;;;;;;2.90;1.50;;;;;;;21.89;78.08;99305.42;104102;1273;59852;-56
2023/07/10 18:06:23;;;;;;;1.20;1.10;;;;;;;21.81;82.41;99311.14;104257;1269;60006;-56
2023/07/10 18:08:50;;;;;;;2.50;1.10;;;;;;;21.71;82.15;99312.60;104092;1259;73510;-55
2023/07/10 18:11:20;;;;;;;4.10;1.10;;;;;;;21.62;86.13;99314.38;106227;1256;70443;-56
2023/07/10 18:13:47;;;;;;;1.60;1.30;;;;;;;21.53;91.87;99317.84;104584;1273;73024;-56
2023/07/10 18:16:14;;;;;;;2.00;1.20;;;;;;;21.47;95.55;99323.84;104345;1257;60129;-55
2023/07/10 18:18:41;;;;;;;2.50;1.30;;;;;;;21.36;98.71;99332.97;104504;1265;60906;-56
2023/07/10 18:21:23;;;;;;;2.60;1.00;;;;;;;21.27;99.58;99333.48;104749;1257;73209;-56
2023/07/10 18:23:50;;;;;;;1.90;1.00;;;;;;;21.17;100.00;99335.30;104470;1256;68926;-55
2023/07/10 18:26:18;;;;;;;4.10;1.20;;;;;;;21.07;100.00;99344.39;104381;1256;73090;-55
2023/07/10 18:28:47;;;;;;;1.70;1.00;;;;;;;21.01;100.00;99341.95;104518;1259;59726;-54
2023/07/10 18:31:22;;;;;;;1.80;1.20;;;;;;;20.91;100.00;99341.52;104419;1254;59762;-57
2023/07/10 18:33:50;;;;;;;2.10;1.00;;;;;;;20.81;100.00;99345.48;104294;1258;72760;-57
2023/07/10 18:36:17;;;;;;;2.90;1.20;;;;;;;20.83;100.00;99343.57;104404;1257;69497;-56
2023/07/10 18:38:45;;;;;;;2.10;1.20;;;;;;;20.71;100.00;99344.26;104339;1265;73194;-57
2023/07/10 18:41:24;;;;;;;3.40;1.20;;;;;;;20.63;100.00;99349.09;104565;1269;60239;-57
2023/07/10 18:43:55;;;;;;;5.20;1.20;;;;;;;20.56;100.00;99346.04;104463;1257;60367;-56
2023/07/10 18:46:23;;;;;;;2.30;1.40;;;;;;;20.49;100.00;99349.95;105912;1253;73381;-57
2023/07/10 18:48:51;;;;;;;1.30;1.20;;;;;;;20.44;100.00;99350.34;107310;1256;69466;-55
2023/07/10 18:51:32;;;;;;;1.50;1.40;;;;;;;20.40;100.00;99345.85;105115;1257;72218;-55
2023/07/10 18:54:04;;;;;;;1.50;1.40;;;;;;;20.35;100.00;99341.48;104525;1256;60789;-54
2023/07/10 18:56:32;;;;;;;1.90;1.40;;;;;;;20.29;100.00;99344.00;104906;1254;59903;-54
2023/07/10 18:58:59;;;;;;;2.40;1.20;;;;;;;20.26;100.00;99344.15;104884;1256;72255;-55
2023/07/10 19:01:29;;;;;;;2.60;1.70;;;;;;;20.20;100.00;99346.38;104334;1254;70262;-55
2023/07/10 19:03:57;;;;;;;2.10;1.40;;;;;;;20.14;100.00;99348.71;104442;1265;72574;-54
2023/07/10 19:06:27;;;;;;;2.80;1.80;;;;;;;20.04;100.00;99349.55;104383;1259;60349;-55
2023/07/10 19:08:55;;;;;;;2.00;1.70;;;;;;;20.01;100.00;99351.61;106937;1253;60288;-55
2023/07/10 19:11:22;;;;;;;4.80;1.70;;;;;;;19.96;100.00;99354.33;107701;1256;73504;-55
2023/07/10 19:13:49;;;;;;;5.80;2.40;;;;;;;19.92;100.00;99352.23;104858;1259;70014;-55
2023/07/10 19:16:24;;;;;;;3.70;2.10;;;;;;;19.87;100.00;99348.95;105346;1257;72844;-56
2023/07/10 19:18:54;;;;;;;2.80;1.80;;;;;;;19.84;100.00;99351.48;104418;1257;59650;-56
2023/07/10 19:21:21;;;;;;;2.30;2.00;;;;;;;19.79;100.00;99353.70;104380;1259;60316;-59
2023/07/10 19:23:48;;;;;;;4.40;2.10;;;;;;;19.74;100.00;99353.39;104431;1258;73645;-57
2023/07/10 19:26:15;;;;;;;2.30;1.70;;;;;;;19.70;100.00;99354.66;104351;1269;68467;-57
2023/07/10 19:28:42;;;;;;;3.20;2.40;;;;;;;19.63;100.00;99356.95;104443;1263;72443;-57
2023/07/10 19:31:09;;;;;;;5.10;2.20;;;;;;;19.59;100.00;99358.40;104532;1254;61324;-56
2023/07/10 19:33:38;;;;;;;3.10;1.60;;;;;;;19.53;100.00;99359.05;104368;1257;61736;-57
2023/07/10 19:36:18;;;;;;;3.60;2.20;;;;;;;19.48;100.00;99362.85;104458;1257;73422;-58
2023/07/10 19:38:46;;;;;;;3.20;1.80;;;;;;;19.50;100.00;99360.90;104342;1258;69123;-58
2023/07/10 19:41:14;;;;;;;3.60;1.90;;;;;;;19.47;100.00;99363.88;104393;1259;72523;-57
2023/07/10 19:43:41;;;;;;;4.10;2.10;;;;;;;19.42;100.00;99364.40;104363;1257;61571;-58
2023/07/10 19:46:13;;;;;;;4.20;2.10;;;;;;;19.42;100.00;99363.55;104349;1259;59776;-59
2023/07/10 19:48:40;;;;;;;2.20;2.00;;;;;;;19.42;100.00;99365.30;104296;1261;72713;-59
2023/07/10 19:51:08;;;;;;;4.10;2.50;;;;;;;19.40;100.00;99365.85;104318;1259;68731;-58
2023/07/10 19:53:35;;;;;;;3.70;2.30;;;;;;;19.37;100.00;99366.95;104363;1254;72784;-58
2023/07/10 19:56:13;;;;;;;2.50;2.30;;;;;;;19.34;100.00;99365.81;104330;1272;61851;-58
2023/07/10 19:58:40;;;;;;;;;;;;;;;19.29;100.00;99370.15;104510;1266;59958;-58
2023/07/10 20:01:08;;;;;;;3.60;2.20;;;;;;;19.23;100.00;99370.28;104255;1269;60456;-60
2023/07/10 20:03:34;;;;;;;3.50;2.10;;;;;;;19.18;100.00;99371.95;104437;1257;68459;-57
2023/07/10 20:06:03;;;;;;;6.90;2.30;;;;;;;19.12;100.00;99370.86;104376;1262;72382;-57
2023/07/10 20:08:34;;;;;;;2.70;2.30;;;;;;;19.07;100.00;99371.03;104335;1265;61089;-59
2023/07/10 20:11:06;;;;;;;6.20;2.40;;;;;;;19.05;100.00;99372.77;108408;1253;60054;-59
2023/07/10 20:13:33;;;;;;;4.90;2.10;;;;;;;19.02;100.00;99373.45;105577;1254;73365;-58
2023/07/10 20:16:08;;;;;;;2.70;2.40;;;;;;;18.92;100.00;99371.76;104708;1259;68593;-59
2023/07/10 20:18:36;;;;;;;3.30;2.40;;;;;;;18.88;100.00;99374.77;104628;1265;72736;-58
2023/07/10 20:21:03;;;;;;;4.80;2.30;;;;;;;18.82;100.00;99368.45;104434;1257;61493;-58
2023/07/10 20:23:31;;;;;;;7.30;2.60;;;;;;;18.75;100.00;99365.15;104617;1255;60536;-60
2023/07/10 20:26:00;;;;;;;2.30;2.10;;;;;;;18.70;100.00;99363.77;104313;1260;74511;-59
2023/07/10 20:28:30;;;;;;;3.80;2.20;;;;;;;18.65;100.00;99367.02;104338;1259;69149;-59
2023/07/10 20:30:58;;;;;;;5.40;2.40;;;;;;;18.60;100.00;99359.59;104393;1257;73099;-59
2023/07/10 20:33:27;;;;;;;;;;;;;;;18.58;100.00;99353.66;104412;1254;61754;-59
2023/07/10 20:35:54;;;;;;;2.60;2.10;;;;;;;18.54;100.00;99356.16;104302;1257;60565;-59
2023/07/10 20:38:25;;;;;;;2.70;2.40;;;;;;;18.49;100.00;99360.26;104365;1259;74176;-59
2023/07/10 20:40:53;;;;;;;3.00;2.50;;;;;;;18.45;100.00;99360.02;104305;1258;69243;-59
2023/07/10 20:43:24;;;;;;;4.20;2.40;;;;;;;18.40;100.00;99364.02;104427;1268;72773;-59
2023/07/10 20:45:58;;;;;;;8.10;2.70;;;;;;;18.38;100.00;99359.02;104369;1260;62470;-61
2023/07/10 20:48:31;;;;;;;5.00;2.50;;;;;;;18.37;100.00;99356.61;104679;1270;60577;-60
2023/07/10 20:50:59;;;;;;;9.60;2.60;;;;;;;18.38;100.00;99353.74;108433;1253;72675;-58
2023/07/10 20:53:26;;;;;;;6.10;2.20;;;;;;;18.39;100.00;99349.20;106090;1257;70293;-60
2023/07/10 20:55:57;;;;;;;2.00;1.90;;;;;;;18.42;100.00;99351.98;104453;1254;72289;-60
2023/07/10 20:58:26;;;;;;;2.80;2.50;;;;;;;18.43;100.00;99356.52;104510;1254;62284;-61
2023/07/10 21:00:55;;;;;;;6.40;2.70;;;;;;;18.44;100.00;99356.05;104827;1257;60012;-60
2023/07/10 21:03:25;;;;;;;2.70;2.50;;;;;;;18.45;100.00;99359.68;104656;1258;74171;-60
2023/07/10 21:05:59;;;;;;;3.10;2.50;;;;;;;18.43;100.00;99354.41;104297;1259;69424;-60
2023/07/10 21:08:30;;;;;;;3.60;2.50;;;;;;;18.39;100.00;99360.02;104427;1254;72914;-60
2023/07/10 21:10:57;;;;;;;2.80;2.40;;;;;;;18.35;100.00;99356.96;104745;1261;60443;-60
2023/07/10 21:13:26;;;;;;;5.30;2.90;;;;;;;18.30;100.00;99355.41;108418;1254;59123;-60
2023/07/10 21:15:53;;;;;;;4.20;2.20;;;;;;;18.25;100.00;99356.11;108435;1253;73407;-58
2023/07/10 21:18:22;;;;;;;5.10;2.20;;;;;;;18.23;100.00;99357.34;107990;1254;70023;-58
2023/07/10 21:20:50;;;;;;;2.90;2.50;;;;;;;18.22;100.00;99360.98;104770;1259;73123;-60
2023/07/10 21:23:25;;;;;;;3.20;2.60;;;;;;;18.19;100.00;99359.80;104283;1264;62389;-59
2023/07/10 21:25:53;;;;;;;5.20;2.20;;;;;;;18.25;100.00;99362.91;104401;1255;60529;-61
2023/07/10 21:28:27;;;;;;;2.50;2.20;;;;;;;18.21;100.00;99362.98;104412;1266;74205;-61
2023/07/10 21:30:54;;;;;;;4.90;2.40;;;;;;;18.14;100.00;99362.50;104377;1272;69814;-59
2023/07/10 21:33:23;;;;;;;4.70;2.60;;;;;;;18.12;100.00;99360.59;104391;1254;72411;-59
2023/07/10 21:35:55;;;;;;;5.00;2.30;;;;;;;18.11;100.00;99357.84;104377;1269;62428;-59
2023/07/10 21:38:23;;;;;;;4.80;2.70;;;;;;;18.08;100.00;99360.98;104343;1260;60106;-59
2023/07/10 21:40:50;;;;;;;2.80;2.50;;;;;;;18.04;100.00;99359.77;104309;1254;74280;-59
2023/07/10 21:43:25;;;;;;;3.00;2.40;;;;;;;18.00;100.00;99359.57;104355;1254;70093;-59
2023/07/10 21:45:53;;;;;;;3.70;2.50;;;;;;;17.95;100.00;99357.77;104316;1259;73053;-59
2023/07/10 21:48:21;;;;;;;2.80;2.50;;;;;;;17.87;100.00;99361.79;104509;1254;61951;-60
2023/07/10 21:50:52;;;;;;;2.60;2.40;;;;;;;17.82;100.00;99365.50;104345;1254;60888;-59
2023/07/10 21:53:20;;;;;;;4.60;2.50;;;;;;;17.78;100.00;99362.78;104302;1258;73825;-59
2023/07/10 21:55:48;;;;;;;;;;;;;;;17.77;100.00;99362.50;104512;1270;69732;-59
2023/07/10 21:58:24;;;;;;;3.80;2.00;;;;;;;17.71;100.00;99363.49;104496;1254;72537;-58
2023/07/10 22:00:52;;;;;;;4.00;2.60;;;;;;;17.67;100.00;99363.41;104353;1254;61578;-60
2023/07/10 22:03:45;;;;;;;3.50;2.40;;;;;;;17.66;100.00;99359.32;104442;1259;60472;-60
2023/07/10 22:06:13;;;;;;;3.00;2.70;;;;;;;17.65;100.00;99364.17;104385;1254;73785;-58
2023/07/10 22:08:40;;;;;;;2.90;2.30;;;;;;;17.65;100.00;99364.36;104488;1260;69197;-58
2023/07/10 22:11:15;;;;;;;3.40;2.30;;;;;;;17.63;100.00;99366.23;105432;1253;72241;-58